sensor_id;sensor_type;location;lat;lon;timestamp;temperature;humidity
75372;HTU21D;63956;52.006;5.878;2022-12-24T00:01:44;11.81;75.38
75372;HTU21D;63956;52.006;5.878;2022-12-24T00:04:13;11.81;75.38
75372;HTU21D;63956;52.006;5.878;2022-12-24T00:06:42;11.79;75.40
75372;HTU21D;63956;52.006;5.878;2022-12-24T00:09:12;11.77;75.41
75372;HTU21D;63956;52.006;5.878;2022-12-24T00:11:44;11.78;75.39
75372;HTU21D;63956;52.006;5.878;2022-12-24T00:14:13;11.77;75.33
75372;HTU21D;63956;52.006;5.878;2022-12-24T00:16:42;11.75;75.25
75372;HTU21D;63956;52.006;5.878;2022-12-24T00:19:11;11.74;75.17
75372;HTU21D;63956;52.006;5.878;2022-12-24T00:21:40;11.74;75.20
75372;HTU21D;63956;52.006;5.878;2022-12-24T00:24:09;11.74;75.03
75372;HTU21D;63956;52.006;5.878;2022-12-24T00:26:38;11.74;75.09
75372;HTU21D;63956;52.006;5.878;2022-12-24T00:29:10;11.72;75.14
75372;HTU21D;63956;52.006;5.878;2022-12-24T00:31:40;11.69;75.14
75372;HTU21D;63956;52.006;5.878;2022-12-24T00:34:09;11.69;74.96
75372;HTU21D;63956;52.006;5.878;2022-12-24T00:36:38;11.67;75.18
75372;HTU21D;63956;52.006;5.878;2022-12-24T00:39:07;11.66;75.01
75372;HTU21D;63956;52.006;5.878;2022-12-24T00:41:36;11.64;74.98
75372;HTU21D;63956;52.006;5.878;2022-12-24T00:44:07;11.63;75.07
75372;HTU21D;63956;52.006;5.878;2022-12-24T00:46:40;11.66;74.89
75372;HTU21D;63956;52.006;5.878;2022-12-24T00:49:11;11.66;74.94
75372;HTU21D;63956;52.006;5.878;2022-12-24T00:51:40;11.66;75.01
75372;HTU21D;63956;52.006;5.878;2022-12-24T00:54:09;11.68;74.95
75372;HTU21D;63956;52.006;5.878;2022-12-24T00:56:38;11.66;74.92
75372;HTU21D;63956;52.006;5.878;2022-12-24T00:59:07;11.69;74.89
75372;HTU21D;63956;52.006;5.878;2022-12-24T01:01:36;11.63;74.62
75372;HTU21D;63956;52.006;5.878;2022-12-24T01:04:07;11.64;74.79
75372;HTU21D;63956;52.006;5.878;2022-12-24T01:06:49;11.58;74.76
75372;HTU21D;63956;52.006;5.878;2022-12-24T01:09:17;11.60;74.83
75372;HTU21D;63956;52.006;5.878;2022-12-24T01:11:46;11.57;74.90
75372;HTU21D;63956;52.006;5.878;2022-12-24T01:14:15;11.58;74.83
75372;HTU21D;63956;52.006;5.878;2022-12-24T01:16:45;11.52;74.88
75372;HTU21D;63956;52.006;5.878;2022-12-24T01:19:17;11.54;74.96
75372;HTU21D;63956;52.006;5.878;2022-12-24T01:21:46;11.55;74.78
75372;HTU21D;63956;52.006;5.878;2022-12-24T01:24:15;11.56;74.83
75372;HTU21D;63956;52.006;5.878;2022-12-24T01:26:44;11.52;74.86
75372;HTU21D;63956;52.006;5.878;2022-12-24T01:29:14;11.52;74.89
75372;HTU21D;63956;52.006;5.878;2022-12-24T01:31:43;11.53;74.89
75372;HTU21D;63956;52.006;5.878;2022-12-24T01:34:13;11.55;74.80
75372;HTU21D;63956;52.006;5.878;2022-12-24T01:36:44;11.55;74.85
75372;HTU21D;63956;52.006;5.878;2022-12-24T01:39:13;11.53;74.94
75372;HTU21D;63956;52.006;5.878;2022-12-24T01:41:43;11.53;74.74
75372;HTU21D;63956;52.006;5.878;2022-12-24T01:44:26;11.49;74.89
75372;HTU21D;63956;52.006;5.878;2022-12-24T01:47:00;11.47;74.99
75372;HTU21D;63956;52.006;5.878;2022-12-24T01:49:30;11.46;74.96
75372;HTU21D;63956;52.006;5.878;2022-12-24T01:52:04;11.48;74.96
75372;HTU21D;63956;52.006;5.878;2022-12-24T01:54:38;11.47;74.89
75372;HTU21D;63956;52.006;5.878;2022-12-24T01:57:12;11.48;74.93
75372;HTU21D;63956;52.006;5.878;2022-12-24T01:59:47;11.44;74.76
75372;HTU21D;63956;52.006;5.878;2022-12-24T02:02:18;11.37;74.96
75372;HTU21D;63956;52.006;5.878;2022-12-24T02:04:52;11.33;75.06
75372;HTU21D;63956;52.006;5.878;2022-12-24T02:07:25;11.27;75.20
75372;HTU21D;63956;52.006;5.878;2022-12-24T02:09:57;11.24;75.31
75372;HTU21D;63956;52.006;5.878;2022-12-24T02:12:28;11.20;75.14
75372;HTU21D;63956;52.006;5.878;2022-12-24T02:14:58;11.17;75.31
75372;HTU21D;63956;52.006;5.878;2022-12-24T02:17:32;11.14;75.21
75372;HTU21D;63956;52.006;5.878;2022-12-24T02:20:35;11.12;75.29
75372;HTU21D;63956;52.006;5.878;2022-12-24T02:23:33;11.04;75.32
75372;HTU21D;63956;52.006;5.878;2022-12-24T02:26:20;10.97;75.36
75372;HTU21D;63956;52.006;5.878;2022-12-24T02:29:13;10.93;75.54
75372;HTU21D;63956;52.006;5.878;2022-12-24T02:31:50;10.86;75.71
75372;HTU21D;63956;52.006;5.878;2022-12-24T02:34:28;10.86;75.70
75372;HTU21D;63956;52.006;5.878;2022-12-24T02:37:03;10.80;75.55
75372;HTU21D;63956;52.006;5.878;2022-12-24T02:39:34;10.77;75.70
75372;HTU21D;63956;52.006;5.878;2022-12-24T02:42:07;10.71;75.57
75372;HTU21D;63956;52.006;5.878;2022-12-24T02:44:40;10.70;75.66
75372;HTU21D;63956;52.006;5.878;2022-12-24T02:47:13;10.66;75.76
75372;HTU21D;63956;52.006;5.878;2022-12-24T02:49:46;10.63;75.93
75372;HTU21D;63956;52.006;5.878;2022-12-24T02:52:30;10.60;75.74
75372;HTU21D;63956;52.006;5.878;2022-12-24T02:55:02;10.58;75.89
75372;HTU21D;63956;52.006;5.878;2022-12-24T02:57:42;10.57;75.89
75372;HTU21D;63956;52.006;5.878;2022-12-24T03:00:18;10.53;75.89
75372;HTU21D;63956;52.006;5.878;2022-12-24T03:03:06;10.50;75.86
75372;HTU21D;63956;52.006;5.878;2022-12-24T03:05:46;10.48;75.90
75372;HTU21D;63956;52.006;5.878;2022-12-24T03:08:23;10.44;75.95
75372;HTU21D;63956;52.006;5.878;2022-12-24T03:11:01;10.44;75.90
75372;HTU21D;63956;52.006;5.878;2022-12-24T03:13:32;10.42;75.84
75372;HTU21D;63956;52.006;5.878;2022-12-24T03:16:03;10.43;75.90
75372;HTU21D;63956;52.006;5.878;2022-12-24T03:18:38;10.40;75.99
75372;HTU21D;63956;52.006;5.878;2022-12-24T03:21:11;10.42;75.92
75372;HTU21D;63956;52.006;5.878;2022-12-24T03:23:41;10.43;75.86
75372;HTU21D;63956;52.006;5.878;2022-12-24T03:26:12;10.46;75.88
75372;HTU21D;63956;52.006;5.878;2022-12-24T03:28:44;10.46;75.76
75372;HTU21D;63956;52.006;5.878;2022-12-24T03:31:14;10.49;75.87
75372;HTU21D;63956;52.006;5.878;2022-12-24T03:33:47;10.53;75.89
75372;HTU21D;63956;52.006;5.878;2022-12-24T03:36:16;10.56;75.82
75372;HTU21D;63956;52.006;5.878;2022-12-24T03:38:45;10.62;75.74
75372;HTU21D;63956;52.006;5.878;2022-12-24T03:41:14;10.66;75.50
75372;HTU21D;63956;52.006;5.878;2022-12-24T03:43:43;10.66;75.70
75372;HTU21D;63956;52.006;5.878;2022-12-24T03:46:12;10.68;75.67
75372;HTU21D;63956;52.006;5.878;2022-12-24T03:48:41;10.73;75.51
75372;HTU21D;63956;52.006;5.878;2022-12-24T03:51:18;10.74;75.57
75372;HTU21D;63956;52.006;5.878;2022-12-24T03:53:48;10.79;75.53
75372;HTU21D;63956;52.006;5.878;2022-12-24T03:56:17;10.86;75.49
75372;HTU21D;63956;52.006;5.878;2022-12-24T03:58:46;10.92;75.41
75372;HTU21D;63956;52.006;5.878;2022-12-24T04:01:15;11.00;75.10
75372;HTU21D;63956;52.006;5.878;2022-12-24T04:03:44;10.99;75.27
75372;HTU21D;63956;52.006;5.878;2022-12-24T04:06:14;11.01;75.14
75372;HTU21D;63956;52.006;5.878;2022-12-24T04:08:46;10.99;75.38
75372;HTU21D;63956;52.006;5.878;2022-12-24T04:11:16;11.01;75.50
75372;HTU21D;63956;52.006;5.878;2022-12-24T04:13:45;11.04;75.50
75372;HTU21D;63956;52.006;5.878;2022-12-24T04:16:15;11.10;75.42
75372;HTU21D;63956;52.006;5.878;2022-12-24T04:18:44;11.15;75.38
75372;HTU21D;63956;52.006;5.878;2022-12-24T04:21:14;11.19;75.42
75372;HTU21D;63956;52.006;5.878;2022-12-24T04:23:46;11.22;75.48
75372;HTU21D;63956;52.006;5.878;2022-12-24T04:26:16;11.27;75.47
75372;HTU21D;63956;52.006;5.878;2022-12-24T04:28:45;11.29;75.47
75372;HTU21D;63956;52.006;5.878;2022-12-24T04:31:15;11.31;75.50
75372;HTU21D;63956;52.006;5.878;2022-12-24T04:33:50;11.34;75.54
75372;HTU21D;63956;52.006;5.878;2022-12-24T04:36:19;11.34;75.59
75372;HTU21D;63956;52.006;5.878;2022-12-24T04:38:51;11.39;75.60
75372;HTU21D;63956;52.006;5.878;2022-12-24T04:41:21;11.42;75.55
75372;HTU21D;63956;52.006;5.878;2022-12-24T04:43:52;11.47;75.54
75372;HTU21D;63956;52.006;5.878;2022-12-24T04:46:23;11.53;75.47
75372;HTU21D;63956;52.006;5.878;2022-12-24T04:48:56;11.55;75.38
75372;HTU21D;63956;52.006;5.878;2022-12-24T04:51:26;11.57;75.38
75372;HTU21D;63956;52.006;5.878;2022-12-24T04:53:58;11.64;75.27
75372;HTU21D;63956;52.006;5.878;2022-12-24T04:56:29;11.67;75.31
75372;HTU21D;63956;52.006;5.878;2022-12-24T04:59:00;11.71;75.28
75372;HTU21D;63956;52.006;5.878;2022-12-24T05:01:31;11.72;75.28
75372;HTU21D;63956;52.006;5.878;2022-12-24T05:04:00;11.69;75.38
75372;HTU21D;63956;52.006;5.878;2022-12-24T05:06:32;11.73;75.47
75372;HTU21D;63956;52.006;5.878;2022-12-24T05:09:04;11.77;75.33
75372;HTU21D;63956;52.006;5.878;2022-12-24T05:11:33;11.78;75.34
75372;HTU21D;63956;52.006;5.878;2022-12-24T05:14:02;11.84;75.23
75372;HTU21D;63956;52.006;5.878;2022-12-24T05:16:31;11.82;75.10
75372;HTU21D;63956;52.006;5.878;2022-12-24T05:19:00;11.85;75.14
75372;HTU21D;63956;52.006;5.878;2022-12-24T05:21:29;11.82;75.30
75372;HTU21D;63956;52.006;5.878;2022-12-24T05:23:58;11.86;75.16
75372;HTU21D;63956;52.006;5.878;2022-12-24T05:26:52;11.87;75.21
75372;HTU21D;63956;52.006;5.878;2022-12-24T05:29:23;11.86;75.26
75372;HTU21D;63956;52.006;5.878;2022-12-24T05:31:52;11.91;75.23
75372;HTU21D;63956;52.006;5.878;2022-12-24T05:34:20;11.96;75.11
75372;HTU21D;63956;52.006;5.878;2022-12-24T05:36:49;11.90;75.27
75372;HTU21D;63956;52.006;5.878;2022-12-24T05:39:18;11.92;75.23
75372;HTU21D;63956;52.006;5.878;2022-12-24T05:41:50;11.88;75.41
75372;HTU21D;63956;52.006;5.878;2022-12-24T05:44:19;11.89;75.47
75372;HTU21D;63956;52.006;5.878;2022-12-24T05:46:49;11.91;75.45
75372;HTU21D;63956;52.006;5.878;2022-12-24T05:49:18;11.92;75.44
75372;HTU21D;63956;52.006;5.878;2022-12-24T05:51:46;11.97;75.34
75372;HTU21D;63956;52.006;5.878;2022-12-24T05:54:15;11.96;75.35
75372;HTU21D;63956;52.006;5.878;2022-12-24T05:56:44;11.98;75.47
75372;HTU21D;63956;52.006;5.878;2022-12-24T05:59:16;11.98;75.50
75372;HTU21D;63956;52.006;5.878;2022-12-24T06:01:45;12.00;75.58
75372;HTU21D;63956;52.006;5.878;2022-12-24T06:04:14;12.03;75.38
75372;HTU21D;63956;52.006;5.878;2022-12-24T06:06:43;12.03;75.36
75372;HTU21D;63956;52.006;5.878;2022-12-24T06:09:12;12.04;75.28
75372;HTU21D;63956;52.006;5.878;2022-12-24T06:11:42;12.00;75.49
75372;HTU21D;63956;52.006;5.878;2022-12-24T06:14:10;12.03;75.37
75372;HTU21D;63956;52.006;5.878;2022-12-24T06:16:42;12.01;75.47
75372;HTU21D;63956;52.006;5.878;2022-12-24T06:19:11;12.00;75.52
75372;HTU21D;63956;52.006;5.878;2022-12-24T06:21:40;12.08;75.32
75372;HTU21D;63956;52.006;5.878;2022-12-24T06:24:09;12.03;75.39
75372;HTU21D;63956;52.006;5.878;2022-12-24T06:26:38;12.08;75.29
75372;HTU21D;63956;52.006;5.878;2022-12-24T06:29:07;12.04;75.28
75372;HTU21D;63956;52.006;5.878;2022-12-24T06:31:36;12.03;75.44
75372;HTU21D;63956;52.006;5.878;2022-12-24T06:34:08;12.05;75.41
75372;HTU21D;63956;52.006;5.878;2022-12-24T06:36:37;12.05;75.44
75372;HTU21D;63956;52.006;5.878;2022-12-24T06:39:06;12.10;75.35
75372;HTU21D;63956;52.006;5.878;2022-12-24T06:41:35;12.10;75.10
75372;HTU21D;63956;52.006;5.878;2022-12-24T06:44:04;12.10;75.10
75372;HTU21D;63956;52.006;5.878;2022-12-24T06:46:33;12.13;75.18
75372;HTU21D;63956;52.006;5.878;2022-12-24T06:49:02;12.10;75.04
75372;HTU21D;63956;52.006;5.878;2022-12-24T06:51:34;12.13;75.10
75372;HTU21D;63956;52.006;5.878;2022-12-24T06:54:03;12.10;74.98
75372;HTU21D;63956;52.006;5.878;2022-12-24T06:56:32;12.14;75.15
75372;HTU21D;63956;52.006;5.878;2022-12-24T06:59:01;12.20;75.01
75372;HTU21D;63956;52.006;5.878;2022-12-24T07:01:30;12.17;74.80
75372;HTU21D;63956;52.006;5.878;2022-12-24T07:03:59;12.18;74.97
75372;HTU21D;63956;52.006;5.878;2022-12-24T07:06:29;12.13;75.03
75372;HTU21D;63956;52.006;5.878;2022-12-24T07:09:00;12.12;75.12
75372;HTU21D;63956;52.006;5.878;2022-12-24T07:11:30;12.14;75.09
75372;HTU21D;63956;52.006;5.878;2022-12-24T07:13:58;12.17;75.03
75372;HTU21D;63956;52.006;5.878;2022-12-24T07:16:27;12.15;74.91
75372;HTU21D;63956;52.006;5.878;2022-12-24T07:18:56;12.18;74.90
75372;HTU21D;63956;52.006;5.878;2022-12-24T07:21:25;12.16;74.86
75372;HTU21D;63956;52.006;5.878;2022-12-24T07:23:54;12.20;74.87
75372;HTU21D;63956;52.006;5.878;2022-12-24T07:26:26;12.17;74.69
75372;HTU21D;63956;52.006;5.878;2022-12-24T07:28:55;12.15;74.85
75372;HTU21D;63956;52.006;5.878;2022-12-24T07:31:24;12.21;74.79
75372;HTU21D;63956;52.006;5.878;2022-12-24T07:33:53;12.20;74.68
75372;HTU21D;63956;52.006;5.878;2022-12-24T07:36:22;12.25;74.69
75372;HTU21D;63956;52.006;5.878;2022-12-24T07:38:53;12.21;74.47
75372;HTU21D;63956;52.006;5.878;2022-12-24T07:41:22;12.21;74.57
75372;HTU21D;63956;52.006;5.878;2022-12-24T07:43:54;12.21;74.73
75372;HTU21D;63956;52.006;5.878;2022-12-24T07:46:23;12.21;74.44
75372;HTU21D;63956;52.006;5.878;2022-12-24T07:48:52;12.25;74.58
75372;HTU21D;63956;52.006;5.878;2022-12-24T07:51:21;12.20;74.39
75372;HTU21D;63956;52.006;5.878;2022-12-24T07:53:50;12.19;74.47
75372;HTU21D;63956;52.006;5.878;2022-12-24T07:56:20;12.21;74.32
75372;HTU21D;63956;52.006;5.878;2022-12-24T07:58:49;12.22;74.38
75372;HTU21D;63956;52.006;5.878;2022-12-24T08:01:20;12.23;74.22
75372;HTU21D;63956;52.006;5.878;2022-12-24T08:03:50;12.20;74.22
75372;HTU21D;63956;52.006;5.878;2022-12-24T08:06:19;12.22;74.24
75372;HTU21D;63956;52.006;5.878;2022-12-24T08:08:48;12.22;74.11
75372;HTU21D;63956;52.006;5.878;2022-12-24T08:11:17;12.20;74.24
75372;HTU21D;63956;52.006;5.878;2022-12-24T08:13:47;12.23;74.08
75372;HTU21D;63956;52.006;5.878;2022-12-24T08:16:15;12.28;74.14
75372;HTU21D;63956;52.006;5.878;2022-12-24T08:18:47;12.26;73.93
75372;HTU21D;63956;52.006;5.878;2022-12-24T08:21:16;12.26;74.04
75372;HTU21D;63956;52.006;5.878;2022-12-24T08:23:45;12.28;74.01
75372;HTU21D;63956;52.006;5.878;2022-12-24T08:26:15;12.28;73.97
75372;HTU21D;63956;52.006;5.878;2022-12-24T08:28:44;12.28;74.01
75372;HTU21D;63956;52.006;5.878;2022-12-24T08:31:13;12.28;73.88
75372;HTU21D;63956;52.006;5.878;2022-12-24T08:33:43;12.30;73.88
75372;HTU21D;63956;52.006;5.878;2022-12-24T08:36:15;12.31;73.91
75372;HTU21D;63956;52.006;5.878;2022-12-24T08:38:44;12.33;73.75
75372;HTU21D;63956;52.006;5.878;2022-12-24T08:41:13;12.31;73.77
75372;HTU21D;63956;52.006;5.878;2022-12-24T08:43:42;12.32;73.88
75372;HTU21D;63956;52.006;5.878;2022-12-24T08:46:12;12.35;73.61
75372;HTU21D;63956;52.006;5.878;2022-12-24T08:48:41;12.35;73.41
75372;HTU21D;63956;52.006;5.878;2022-12-24T08:51:11;12.37;73.41
75372;HTU21D;63956;52.006;5.878;2022-12-24T08:53:43;12.41;73.51
75372;HTU21D;63956;52.006;5.878;2022-12-24T08:56:12;12.40;73.49
75372;HTU21D;63956;52.006;5.878;2022-12-24T08:58:41;12.45;73.26
75372;HTU21D;63956;52.006;5.878;2022-12-24T09:01:12;12.48;73.25
75372;HTU21D;63956;52.006;5.878;2022-12-24T09:03:42;12.50;73.03
75372;HTU21D;63956;52.006;5.878;2022-12-24T09:06:14;12.51;73.21
75372;HTU21D;63956;52.006;5.878;2022-12-24T09:08:46;12.49;73.26
75372;HTU21D;63956;52.006;5.878;2022-12-24T09:11:17;12.48;73.20
75372;HTU21D;63956;52.006;5.878;2022-12-24T09:13:47;12.48;73.06
75372;HTU21D;63956;52.006;5.878;2022-12-24T09:16:16;12.49;73.21
75372;HTU21D;63956;52.006;5.878;2022-12-24T09:18:45;12.52;73.15
75372;HTU21D;63956;52.006;5.878;2022-12-24T09:21:15;12.53;73.18
75372;HTU21D;63956;52.006;5.878;2022-12-24T09:23:47;12.58;73.06
75372;HTU21D;63956;52.006;5.878;2022-12-24T09:26:18;12.61;72.93
75372;HTU21D;63956;52.006;5.878;2022-12-24T09:28:48;12.61;72.81
75372;HTU21D;63956;52.006;5.878;2022-12-24T09:31:18;12.60;72.79
75372;HTU21D;63956;52.006;5.878;2022-12-24T09:33:48;12.57;73.12
75372;HTU21D;63956;52.006;5.878;2022-12-24T09:36:18;12.60;73.05
75372;HTU21D;63956;52.006;5.878;2022-12-24T09:38:50;12.60;72.91
75372;HTU21D;63956;52.006;5.878;2022-12-24T09:41:29;12.64;72.93
75372;HTU21D;63956;52.006;5.878;2022-12-24T09:44:17;12.64;72.87
75372;HTU21D;63956;52.006;5.878;2022-12-24T09:46:49;12.59;72.69
75372;HTU21D;63956;52.006;5.878;2022-12-24T09:49:22;12.60;72.54
75372;HTU21D;63956;52.006;5.878;2022-12-24T09:51:55;12.61;72.88
75372;HTU21D;63956;52.006;5.878;2022-12-24T09:54:32;12.62;72.64
75372;HTU21D;63956;52.006;5.878;2022-12-24T09:57:07;12.64;72.81
75372;HTU21D;63956;52.006;5.878;2022-12-24T09:59:42;12.61;72.90
75372;HTU21D;63956;52.006;5.878;2022-12-24T10:02:14;12.63;72.81
75372;HTU21D;63956;52.006;5.878;2022-12-24T10:04:44;12.63;72.79
75372;HTU21D;63956;52.006;5.878;2022-12-24T10:07:26;12.66;72.61
75372;HTU21D;63956;52.006;5.878;2022-12-24T10:10:06;12.69;72.41
75372;HTU21D;63956;52.006;5.878;2022-12-24T10:12:44;12.71;72.51
75372;HTU21D;63956;52.006;5.878;2022-12-24T10:15:26;12.75;72.35
75372;HTU21D;63956;52.006;5.878;2022-12-24T10:18:13;12.82;72.20
75372;HTU21D;63956;52.006;5.878;2022-12-24T10:20:47;12.82;72.37
75372;HTU21D;63956;52.006;5.878;2022-12-24T10:23:24;12.81;72.19
75372;HTU21D;63956;52.006;5.878;2022-12-24T10:26:06;12.85;72.23
75372;HTU21D;63956;52.006;5.878;2022-12-24T10:28:44;12.87;72.03
75372;HTU21D;63956;52.006;5.878;2022-12-24T10:31:14;12.87;72.14
75372;HTU21D;63956;52.006;5.878;2022-12-24T10:33:46;12.89;71.94
75372;HTU21D;63956;52.006;5.878;2022-12-24T10:36:19;12.93;71.68
75372;HTU21D;63956;52.006;5.878;2022-12-24T10:38:50;12.95;71.91
75372;HTU21D;63956;52.006;5.878;2022-12-24T10:41:22;13.02;71.63
75372;HTU21D;63956;52.006;5.878;2022-12-24T10:43:53;13.07;71.71
75372;HTU21D;63956;52.006;5.878;2022-12-24T10:46:29;13.11;71.13
75372;HTU21D;63956;52.006;5.878;2022-12-24T10:49:01;13.18;71.10
75372;HTU21D;63956;52.006;5.878;2022-12-24T10:51:37;13.25;71.16
75372;HTU21D;63956;52.006;5.878;2022-12-24T10:54:11;13.26;71.30
75372;HTU21D;63956;52.006;5.878;2022-12-24T10:56:46;13.34;70.88
75372;HTU21D;63956;52.006;5.878;2022-12-24T10:59:25;13.44;70.93
75372;HTU21D;63956;52.006;5.878;2022-12-24T11:01:55;13.59;69.99
75372;HTU21D;63956;52.006;5.878;2022-12-24T11:04:27;13.70;69.68
75372;HTU21D;63956;52.006;5.878;2022-12-24T11:06:58;13.65;69.91
75372;HTU21D;63956;52.006;5.878;2022-12-24T11:09:30;13.53;69.88
75372;HTU21D;63956;52.006;5.878;2022-12-24T11:12:03;13.41;70.18
75372;HTU21D;63956;52.006;5.878;2022-12-24T11:14:36;13.37;70.30
75372;HTU21D;63956;52.006;5.878;2022-12-24T11:17:09;13.38;70.35
75372;HTU21D;63956;52.006;5.878;2022-12-24T11:19:48;13.34;70.16
75372;HTU21D;63956;52.006;5.878;2022-12-24T11:22:21;13.30;70.26
75372;HTU21D;63956;52.006;5.878;2022-12-24T11:24:58;13.21;70.12
75372;HTU21D;63956;52.006;5.878;2022-12-24T11:27:42;13.14;70.45
75372;HTU21D;63956;52.006;5.878;2022-12-24T11:30:27;13.10;70.52
75372;HTU21D;63956;52.006;5.878;2022-12-24T11:33:18;13.11;70.51
75372;HTU21D;63956;52.006;5.878;2022-12-24T11:35:52;13.11;70.35
75372;HTU21D;63956;52.006;5.878;2022-12-24T11:38:23;13.12;69.89
75372;HTU21D;63956;52.006;5.878;2022-12-24T11:41:02;13.12;70.01
75372;HTU21D;63956;52.006;5.878;2022-12-24T11:43:57;13.09;70.14
75372;HTU21D;63956;52.006;5.878;2022-12-24T11:46:36;13.17;69.79
75372;HTU21D;63956;52.006;5.878;2022-12-24T11:49:19;13.26;69.52
75372;HTU21D;63956;52.006;5.878;2022-12-24T11:52:13;13.38;69.49
75372;HTU21D;63956;52.006;5.878;2022-12-24T11:54:50;13.51;68.91
75372;HTU21D;63956;52.006;5.878;2022-12-24T11:57:22;13.59;68.94
75372;HTU21D;63956;52.006;5.878;2022-12-24T11:59:56;13.65;68.68
75372;HTU21D;63956;52.006;5.878;2022-12-24T12:02:27;13.70;68.69
75372;HTU21D;63956;52.006;5.878;2022-12-24T12:05:03;13.82;68.30
75372;HTU21D;63956;52.006;5.878;2022-12-24T12:07:35;13.83;68.39
75372;HTU21D;63956;52.006;5.878;2022-12-24T12:10:10;13.85;68.26
75372;HTU21D;63956;52.006;5.878;2022-12-24T12:12:45;13.88;67.68
75372;HTU21D;63956;52.006;5.878;2022-12-24T12:15:20;13.94;67.66
75372;HTU21D;63956;52.006;5.878;2022-12-24T12:17:53;13.91;67.99
75372;HTU21D;63956;52.006;5.878;2022-12-24T12:20:27;13.90;67.75
75372;HTU21D;63956;52.006;5.878;2022-12-24T12:23:01;13.82;67.85
75372;HTU21D;63956;52.006;5.878;2022-12-24T12:25:36;13.73;68.17
75372;HTU21D;63956;52.006;5.878;2022-12-24T12:28:14;13.68;68.36
75372;HTU21D;63956;52.006;5.878;2022-12-24T12:31:02;13.75;68.07
75372;HTU21D;63956;52.006;5.878;2022-12-24T12:33:35;13.69;67.91
75372;HTU21D;63956;52.006;5.878;2022-12-24T12:36:07;13.66;68.22
75372;HTU21D;63956;52.006;5.878;2022-12-24T12:38:38;13.64;67.82
75372;HTU21D;63956;52.006;5.878;2022-12-24T12:41:25;13.58;67.85
75372;HTU21D;63956;52.006;5.878;2022-12-24T12:44:23;13.49;68.10
75372;HTU21D;63956;52.006;5.878;2022-12-24T12:47:21;13.43;67.84
75372;HTU21D;63956;52.006;5.878;2022-12-24T12:49:59;13.68;67.92
75372;HTU21D;63956;52.006;5.878;2022-12-24T12:52:43;14.05;67.18
75372;HTU21D;63956;52.006;5.878;2022-12-24T12:55:25;14.28;66.37
75372;HTU21D;63956;52.006;5.878;2022-12-24T12:57:58;14.40;65.75
75372;HTU21D;63956;52.006;5.878;2022-12-24T13:00:32;14.53;65.60
75372;HTU21D;63956;52.006;5.878;2022-12-24T13:03:28;14.77;65.33
75372;HTU21D;63956;52.006;5.878;2022-12-24T13:06:30;15.44;64.28
75372;HTU21D;63956;52.006;5.878;2022-12-24T13:09:19;16.10;62.02
75372;HTU21D;63956;52.006;5.878;2022-12-24T13:12:04;16.07;61.71
75372;HTU21D;63956;52.006;5.878;2022-12-24T13:14:54;15.75;61.93
75372;HTU21D;63956;52.006;5.878;2022-12-24T13:20:28;15.14;62.71
75372;HTU21D;63956;52.006;5.878;2022-12-24T13:23:00;14.81;63.37
75372;HTU21D;63956;52.006;5.878;2022-12-24T13:25:34;14.59;63.27
75372;HTU21D;63956;52.006;5.878;2022-12-24T13:28:14;14.36;64.02
75372;HTU21D;63956;52.006;5.878;2022-12-24T13:30:44;14.22;64.27
75372;HTU21D;63956;52.006;5.878;2022-12-24T13:36:22;13.94;64.29
75372;HTU21D;63956;52.006;5.878;2022-12-24T13:38:52;13.84;64.79
75372;HTU21D;63956;52.006;5.878;2022-12-24T13:41:49;13.90;64.79
75372;HTU21D;63956;52.006;5.878;2022-12-24T13:44:23;13.93;64.63
75372;HTU21D;63956;52.006;5.878;2022-12-24T13:47:00;13.95;64.69
75372;HTU21D;63956;52.006;5.878;2022-12-24T13:49:33;13.85;64.88
75372;HTU21D;63956;52.006;5.878;2022-12-24T13:52:22;13.70;64.87
75372;HTU21D;63956;52.006;5.878;2022-12-24T13:55:13;13.49;65.34
75372;HTU21D;63956;52.006;5.878;2022-12-24T13:57:51;13.26;65.34
75372;HTU21D;63956;52.006;5.878;2022-12-24T14:00:40;13.10;65.79
75372;HTU21D;63956;52.006;5.878;2022-12-24T14:03:28;13.04;65.79
75372;HTU21D;63956;52.006;5.878;2022-12-24T14:06:01;12.92;65.78
75372;HTU21D;63956;52.006;5.878;2022-12-24T14:08:41;12.86;66.36
75372;HTU21D;63956;52.006;5.878;2022-12-24T14:11:13;12.81;66.31
75372;HTU21D;63956;52.006;5.878;2022-12-24T14:14:08;12.79;66.49
75372;HTU21D;63956;52.006;5.878;2022-12-24T14:16:46;12.75;66.50
75372;HTU21D;63956;52.006;5.878;2022-12-24T14:19:19;12.69;66.87
75372;HTU21D;63956;52.006;5.878;2022-12-24T14:21:54;12.66;66.96
75372;HTU21D;63956;52.006;5.878;2022-12-24T14:24:32;12.63;67.13
75372;HTU21D;63956;52.006;5.878;2022-12-24T14:27:11;12.58;66.94
75372;HTU21D;63956;52.006;5.878;2022-12-24T14:29:47;12.53;67.35
75372;HTU21D;63956;52.006;5.878;2022-12-24T14:32:17;12.48;67.43
75372;HTU21D;63956;52.006;5.878;2022-12-24T14:35:04;12.48;67.28
75372;HTU21D;63956;52.006;5.878;2022-12-24T14:37:34;12.46;67.40
75372;HTU21D;63956;52.006;5.878;2022-12-24T14:40:12;12.50;67.39
75372;HTU21D;63956;52.006;5.878;2022-12-24T14:42:48;12.53;67.63
75372;HTU21D;63956;52.006;5.878;2022-12-24T14:45:27;12.55;67.31
75372;HTU21D;63956;52.006;5.878;2022-12-24T14:48:04;12.51;67.30
75372;HTU21D;63956;52.006;5.878;2022-12-24T14:50:59;12.46;67.38
75372;HTU21D;63956;52.006;5.878;2022-12-24T14:53:42;12.42;67.37
75372;HTU21D;63956;52.006;5.878;2022-12-24T14:56:18;12.36;67.78
75372;HTU21D;63956;52.006;5.878;2022-12-24T14:58:48;12.29;68.02
75372;HTU21D;63956;52.006;5.878;2022-12-24T15:01:20;12.26;68.16
75372;HTU21D;63956;52.006;5.878;2022-12-24T15:04:00;12.20;68.21
75372;HTU21D;63956;52.006;5.878;2022-12-24T15:06:33;12.15;68.55
75372;HTU21D;63956;52.006;5.878;2022-12-24T15:09:03;12.08;68.50
75372;HTU21D;63956;52.006;5.878;2022-12-24T15:11:35;12.02;68.78
75372;HTU21D;63956;52.006;5.878;2022-12-24T15:14:04;11.94;68.75
75372;HTU21D;63956;52.006;5.878;2022-12-24T15:16:34;11.90;68.80
75372;HTU21D;63956;52.006;5.878;2022-12-24T15:19:06;11.87;69.17
75372;HTU21D;63956;52.006;5.878;2022-12-24T15:21:38;11.78;69.32
75372;HTU21D;63956;52.006;5.878;2022-12-24T15:24:23;11.74;69.46
75372;HTU21D;63956;52.006;5.878;2022-12-24T15:26:56;11.69;69.69
75372;HTU21D;63956;52.006;5.878;2022-12-24T15:29:27;11.61;69.55
75372;HTU21D;63956;52.006;5.878;2022-12-24T15:31:59;11.53;70.07
75372;HTU21D;63956;52.006;5.878;2022-12-24T15:34:36;11.48;70.20
75372;HTU21D;63956;52.006;5.878;2022-12-24T15:37:10;11.42;70.39
75372;HTU21D;63956;52.006;5.878;2022-12-24T15:39:40;11.40;70.62
75372;HTU21D;63956;52.006;5.878;2022-12-24T15:42:17;11.38;70.49
75372;HTU21D;63956;52.006;5.878;2022-12-24T15:44:56;11.34;70.54
75372;HTU21D;63956;52.006;5.878;2022-12-24T15:47:27;11.30;70.70
75372;HTU21D;63956;52.006;5.878;2022-12-24T15:50:03;11.26;70.97
75372;HTU21D;63956;52.006;5.878;2022-12-24T15:52:37;11.25;70.75
75372;HTU21D;63956;52.006;5.878;2022-12-24T15:55:24;11.20;70.95
75372;HTU21D;63956;52.006;5.878;2022-12-24T15:57:56;11.14;71.13
75372;HTU21D;63956;52.006;5.878;2022-12-24T16:00:27;11.11;71.29